Time;durP1;ratioP1;P1;durP2;ratioP2;P2;SDS_P1;SDS_P2;PMS_P1;PMS_P2;Temp;Humidity;BMP_temperature;BMP_pressure;BME280_temperature;BME280_humidity;BME280_pressure;Samples;Min_cycle;Max_cycle;Signal;HPM_P1;HPM_P2
2022/04/11 00:01:28;;;;;;;9.70;4.78;;;;;;;3.14;71.70;100460.44;5023844;28;20109;-59
2022/04/11 00:03:53;;;;;;;9.68;4.72;;;;;;;3.17;71.31;100457.91;5028305;28;20436;-59
2022/04/11 00:06:19;;;;;;;9.13;4.20;;;;;;;3.19;71.38;100452.69;5026362;28;20121;-59
2022/04/11 00:08:44;;;;;;;11.02;4.10;;;;;;;3.11;71.58;100455.25;5025166;28;20029;-59
2022/04/11 00:11:09;;;;;;;10.80;4.50;;;;;;;3.11;71.85;100460.44;5034641;28;20068;-60
2022/04/11 00:13:35;;;;;;;9.18;4.03;;;;;;;3.20;71.21;100463.13;5027742;28;20038;-59
2022/04/11 00:16:00;;;;;;;12.82;3.65;;;;;;;3.13;71.82;100456.13;5022424;28;20037;-59
2022/04/11 00:18:26;;;;;;;9.23;4.10;;;;;;;3.21;71.53;100467.44;5018618;28;20046;-59
2022/04/11 00:20:52;;;;;;;9.90;3.88;;;;;;;3.16;71.81;100463.94;5032212;28;20413;-59
2022/04/11 00:23:18;;;;;;;10.90;3.22;;;;;;;3.07;71.99;100469.06;5026343;28;20400;-59
2022/04/11 00:25:44;;;;;;;7.28;3.47;;;;;;;3.17;71.56;100465.69;5031087;28;20034;-58
2022/04/11 00:28:10;;;;;;;10.73;4.32;;;;;;;3.17;71.82;100460.50;5023311;28;20461;-59
2022/04/11 00:30:35;;;;;;;9.25;3.95;;;;;;;3.18;71.98;100466.56;5034539;28;20053;-59
2022/04/11 00:33:00;;;;;;;10.85;3.90;;;;;;;3.18;71.65;100463.94;5034589;28;20033;-59
2022/04/11 00:35:26;;;;;;;10.30;4.15;;;;;;;3.13;72.25;100474.28;5021943;28;20041;-59
2022/04/11 00:37:51;;;;;;;8.80;3.58;;;;;;;3.14;72.27;100475.16;5020233;28;20033;-59
2022/04/11 00:40:17;;;;;;;7.10;3.75;;;;;;;3.12;72.31;100480.34;5021198;28;20052;-59
2022/04/11 00:42:42;;;;;;;10.18;4.22;;;;;;;3.07;72.84;100484.63;5028378;28;20033;-60
2022/04/11 00:45:08;;;;;;;12.35;4.20;;;;;;;3.07;72.59;100484.63;5026040;28;20097;-60
2022/04/11 00:47:34;;;;;;;9.77;4.15;;;;;;;3.05;72.97;100494.13;5026914;28;20084;-59
2022/04/11 00:50:04;;;;;;;9.70;3.72;;;;;;;3.05;72.97;100488.94;5014471;28;20034;-59
2022/04/11 00:52:32;;;;;;;12.68;4.25;;;;;;;3.06;72.76;100482.88;5023776;28;20041;-59
2022/04/11 00:55:01;;;;;;;8.60;3.80;;;;;;;3.09;72.65;100488.09;5023940;28;20041;-59
2022/04/11 00:57:27;;;;;;;10.40;3.95;;;;;;;3.04;72.88;100487.19;5032779;28;20038;-59
2022/04/11 00:59:53;;;;;;;10.32;3.60;;;;;;;2.87;74.63;100492.22;5026545;28;20461;-59
2022/04/11 01:02:18;;;;;;;10.95;4.13;;;;;;;2.91;73.92;100488.78;5029023;28;20062;-59
2022/04/11 01:04:44;;;;;;;8.75;3.70;;;;;;;2.88;74.23;100490.47;5032630;28;20039;-59
2022/04/11 01:07:09;;;;;;;7.13;3.17;;;;;;;2.94;74.09;100490.53;5020091;28;20088;-59
2022/04/11 01:09:35;;;;;;;10.70;4.05;;;;;;;2.93;74.05;100488.81;5022127;28;20060;-59
2022/04/11 01:12:02;;;;;;;10.35;3.75;;;;;;;2.91;74.38;100490.50;5031896;28;20388;-59
2022/04/11 01:14:28;;;;;;;8.20;3.72;;;;;;;2.92;74.32;100492.25;5024834;28;20026;-59
2022/04/11 01:16:54;;;;;;;9.02;3.85;;;;;;;2.92;74.26;100494.84;5017250;28;20556;-58
2022/04/11 01:19:20;;;;;;;11.43;4.30;;;;;;;2.89;74.66;100500.88;5025331;28;20034;-59
2022/04/11 01:21:47;;;;;;;10.07;4.45;;;;;;;2.95;74.34;100500.06;5014946;28;20469;-59
2022/04/11 01:24:12;;;;;;;10.13;4.07;;;;;;;2.87;75.28;100499.09;5015848;28;20121;-59
2022/04/11 01:26:38;;;;;;;8.15;3.30;;;;;;;2.95;74.51;100500.06;5019259;28;20544;-60
2022/04/11 01:29:04;;;;;;;8.15;3.20;;;;;;;2.94;74.54;100506.09;5022685;28;20040;-59
2022/04/11 01:31:30;;;;;;;7.55;2.95;;;;;;;2.98;74.23;100500.09;5023397;28;20116;-59
2022/04/11 01:33:56;;;;;;;8.07;3.00;;;;;;;3.00;74.09;100511.38;5032683;28;20026;-59
2022/04/11 01:36:22;;;;;;;6.60;3.10;;;;;;;3.00;74.16;100513.97;5030736;28;20447;-59
2022/04/11 01:38:47;;;;;;;11.75;3.65;;;;;;;2.96;74.49;100514.78;5021725;28;20038;-59
2022/04/11 01:41:12;;;;;;;8.57;3.38;;;;;;;3.01;74.22;100513.13;4991485;28;1117662;-59
2022/04/11 01:43:38;;;;;;;9.20;3.15;;;;;;;2.96;74.62;100514.78;5022518;28;20049;-59
2022/04/11 01:46:03;;;;;;;5.75;3.10;;;;;;;3.00;74.65;100513.97;5016442;28;20030;-59
2022/04/11 01:48:29;;;;;;;8.05;3.60;;;;;;;3.05;74.58;100514.03;5016092;28;20465;-60
2022/04/11 01:50:54;;;;;;;6.05;2.90;;;;;;;3.12;74.05;100521.03;5020901;28;20076;-60
2022/04/11 01:53:20;;;;;;;8.38;2.83;;;;;;;3.15;74.35;100527.13;5023300;28;20034;-60
2022/04/11 01:55:46;;;;;;;8.30;2.97;;;;;;;3.21;74.11;100528.91;5031616;28;20112;-60
2022/04/11 01:58:12;;;;;;;5.70;2.83;;;;;;;3.30;73.91;100531.59;5022672;28;20051;-60
2022/04/11 02:00:39;;;;;;;8.80;3.33;;;;;;;3.48;73.17;100528.31;5031576;28;20120;-60
2022/04/11 02:03:06;;;;;;;7.72;2.95;;;;;;;3.48;73.33;100533.53;5023568;28;20087;-60
2022/04/11 02:05:32;;;;;;;6.90;3.00;;;;;;;3.48;73.31;100538.72;5026513;28;20052;-60
2022/04/11 02:07:58;;;;;;;6.35;2.72;;;;;;;3.51;73.22;100527.47;5026469;28;20438;-60
2022/04/11 02:10:24;;;;;;;5.28;2.55;;;;;;;3.67;72.40;100532.84;5029180;28;20033;-60
2022/04/11 02:12:50;;;;;;;8.10;2.97;;;;;;;3.76;72.12;100526.84;5033230;28;20128;-60
2022/04/11 02:15:16;;;;;;;8.00;2.95;;;;;;;3.86;71.67;100531.22;5023575;28;20038;-59
2022/04/11 02:17:42;;;;;;;6.75;2.90;;;;;;;3.92;71.30;100520.91;5017482;28;20037;-59
2022/04/11 02:20:09;;;;;;;7.97;2.60;;;;;;;3.97;71.32;100533.94;5027577;28;20061;-58
2022/04/11 02:22:44;;;;;;;8.30;2.28;;;;;;;4.03;71.28;100530.50;5030455;28;20029;-59
2022/04/11 02:25:09;;;;;;;9.00;2.40;;;;;;;4.09;70.72;100536.63;5030621;28;20033;-59
2022/04/11 02:27:34;;;;;;;7.38;2.70;;;;;;;4.06;70.83;100536.59;5023486;28;20048;-59
2022/04/11 02:30:00;;;;;;;9.13;2.70;;;;;;;3.99;70.75;100537.44;5014276;28;20500;-59
2022/04/11 02:32:25;;;;;;;8.48;3.10;;;;;;;3.75;71.77;100537.19;5017010;28;20042;-59
2022/04/11 02:34:50;;;;;;;8.77;3.05;;;;;;;3.61;72.02;100537.97;5015089;28;20438;-60
2022/04/11 02:37:16;;;;;;;6.53;2.80;;;;;;;3.52;72.46;100537.03;5022400;28;20034;-59
2022/04/11 02:39:41;;;;;;;5.88;2.78;;;;;;;3.49;72.77;100540.44;5019100;28;20453;-60
2022/04/11 02:42:07;;;;;;;7.15;2.50;;;;;;;3.52;72.67;100530.09;5019949;28;20046;-59
2022/04/11 02:44:32;;;;;;;5.53;2.70;;;;;;;3.60;72.59;100536.22;5014526;28;20438;-59
2022/04/11 02:46:57;;;;;;;8.43;3.05;;;;;;;3.71;72.33;100536.34;5029445;28;20434;-59
2022/04/11 02:49:23;;;;;;;5.75;2.67;;;;;;;3.85;71.76;100539.03;5030480;28;20049;-59
2022/04/11 02:51:48;;;;;;;9.15;2.95;;;;;;;4.03;71.52;100541.78;5028098;28;20454;-60
2022/04/11 02:54:14;;;;;;;7.10;2.85;;;;;;;4.07;71.15;100538.34;5020949;28;20500;-59
2022/04/11 02:56:39;;;;;;;8.68;2.70;;;;;;;4.16;70.70;100541.00;5022800;28;20041;-59
2022/04/11 02:59:04;;;;;;;8.73;3.10;;;;;;;4.30;70.33;100537.63;5022109;28;20492;-59
2022/04/11 03:01:30;;;;;;;8.10;2.75;;;;;;;4.42;69.83;100541.16;5017584;28;20068;-60
2022/04/11 03:03:55;;;;;;;9.98;3.25;;;;;;;4.34;69.95;100534.19;5028180;28;20040;-59
2022/04/11 03:06:21;;;;;;;7.18;2.75;;;;;;;4.41;69.90;100535.97;5022543;28;20048;-59
2022/04/11 03:08:47;;;;;;;6.03;2.65;;;;;;;4.41;69.94;100538.56;5028708;28;20030;-59
2022/04/11 03:11:12;;;;;;;6.30;2.72;;;;;;;4.47;69.52;100537.72;5024018;28;20108;-59
2022/04/11 03:13:38;;;;;;;10.23;3.17;;;;;;;4.33;70.46;100538.50;5015274;28;20025;-60
2022/04/11 03:16:03;;;;;;;10.65;3.13;;;;;;;4.39;69.82;100546.38;5033319;28;20091;-59
2022/04/11 03:18:29;;;;;;;10.80;3.35;;;;;;;4.44;69.63;100546.41;5027805;28;20527;-60
2022/04/11 03:20:54;;;;;;;8.73;3.60;;;;;;;4.32;70.25;100544.59;5030847;28;20092;-59
2022/04/11 03:23:20;;;;;;;11.02;3.40;;;;;;;4.33;70.09;100548.06;5033072;28;20069;-59
2022/04/11 03:25:45;;;;;;;4.95;2.78;;;;;;;4.30;70.24;100540.22;5024578;28;20030;-59
2022/04/11 03:28:10;;;;;;;7.80;3.00;;;;;;;4.31;70.32;100542.84;5033953;28;20478;-59
2022/04/11 03:30:36;;;;;;;9.13;2.65;;;;;;;4.32;70.15;100543.72;5033427;28;20124;-59
2022/04/11 03:33:01;;;;;;;9.90;3.00;;;;;;;4.31;70.54;100544.56;5017357;28;20389;-59
2022/04/11 03:35:26;;;;;;;8.75;2.97;;;;;;;4.30;70.54;100550.63;5013555;28;20030;-59
2022/04/11 03:37:52;;;;;;;8.70;2.88;;;;;;;4.31;70.32;100547.16;5030282;28;20473;-59
2022/04/11 03:40:17;;;;;;;5.07;2.42;;;;;;;4.30;70.54;100548.03;5015383;28;20050;-58
2022/04/11 03:42:42;;;;;;;6.72;2.75;;;;;;;4.23;70.86;100549.75;5032777;28;20439;-59
2022/04/11 03:45:10;;;;;;;7.55;3.15;;;;;;;4.14;71.04;100547.91;5019694;28;20045;-58
2022/04/11 03:47:36;;;;;;;8.80;2.80;;;;;;;4.06;71.37;100549.59;5029593;28;20090;-59
2022/04/11 03:50:02;;;;;;;7.50;2.58;;;;;;;3.97;71.86;100556.47;5014173;28;20049;-59
2022/04/11 03:52:28;;;;;;;6.20;2.90;;;;;;;3.99;71.85;100568.63;5026334;28;20053;-59
2022/04/11 03:54:53;;;;;;;8.10;2.97;;;;;;;4.02;71.50;100562.56;5031598;28;20444;-59
2022/04/11 03:57:18;;;;;;;9.73;2.40;;;;;;;4.03;71.69;100554.78;5028964;28;20029;-59
2022/04/11 03:59:44;;;;;;;5.03;2.13;;;;;;;4.05;71.43;100570.41;5030749;28;20030;-59
2022/04/11 04:02:09;;;;;;;8.38;3.10;;;;;;;4.03;71.70;100570.41;5019880;28;20363;-59
2022/04/11 04:04:35;;;;;;;8.02;2.90;;;;;;;4.05;71.90;100568.66;5026860;28;20033;-59
2022/04/11 04:07:00;;;;;;;8.20;3.45;;;;;;;4.10;71.68;100577.34;5013272;28;20061;-59
2022/04/11 04:09:25;;;;;;;6.82;2.88;;;;;;;4.06;71.66;100573.00;5025109;28;20066;-60
2022/04/11 04:11:51;;;;;;;10.98;3.28;;;;;;;4.12;71.71;100565.25;5013388;28;20396;-59
2022/04/11 04:14:17;;;;;;;6.68;2.60;;;;;;;4.21;71.44;100585.25;5030905;28;20072;-59
2022/04/11 04:16:42;;;;;;;6.20;3.22;;;;;;;4.34;71.31;100579.28;5029563;28;20041;-60
2022/04/11 04:19:08;;;;;;;8.13;2.60;;;;;;;4.42;71.00;100582.78;5021837;28;20034;-60
2022/04/11 04:21:33;;;;;;;11.25;3.40;;;;;;;4.63;70.48;100582.06;5020664;28;20069;-60
2022/04/11 04:23:58;;;;;;;6.93;3.35;;;;;;;4.71;70.22;100576.91;5026222;28;20531;-60
2022/04/11 04:26:24;;;;;;;9.43;3.25;;;;;;;4.85;69.56;100584.78;5023645;28;20045;-60
2022/04/11 04:28:49;;;;;;;6.57;2.83;;;;;;;4.98;68.88;100586.56;5018602;28;20038;-60
2022/04/11 04:31:15;;;;;;;8.10;3.20;;;;;;;5.13;68.55;100585.78;5030360;28;20041;-60
2022/04/11 04:33:41;;;;;;;7.45;2.90;;;;;;;5.25;68.18;100585.81;5030839;28;20049;-60
2022/04/11 04:36:06;;;;;;;5.85;3.13;;;;;;;5.39;67.64;100588.47;5021134;28;20470;-59
2022/04/11 04:38:32;;;;;;;14.15;3.40;;;;;;;5.53;67.26;100597.19;5036123;28;20049;-58
2022/04/11 04:40:57;;;;;;;11.30;3.22;;;;;;;5.41;67.07;100595.41;5027041;28;20503;-59
2022/04/11 04:43:23;;;;;;;8.85;3.20;;;;;;;5.42;67.12;100597.16;5038920;28;20144;-58
2022/04/11 04:45:48;;;;;;;9.77;3.72;;;;;;;5.36;67.30;100594.53;5026938;28;20033;-58
2022/04/11 04:48:14;;;;;;;9.43;3.50;;;;;;;5.31;67.51;100600.63;5017149;28;20072;-58
2022/04/11 04:50:39;;;;;;;12.07;3.78;;;;;;;5.18;67.96;100602.28;5030980;28;20034;-59
2022/04/11 04:53:04;;;;;;;7.97;3.45;;;;;;;5.31;67.61;100603.22;5032635;28;20041;-59
2022/04/11 04:55:30;;;;;;;9.05;3.50;;;;;;;5.43;67.29;100603.25;5026575;28;20478;-58
2022/04/11 04:57:55;;;;;;;7.68;3.60;;;;;;;5.52;67.19;100605.00;5033163;28;20037;-59
2022/04/11 05:00:21;;;;;;;8.80;3.65;;;;;;;5.52;67.00;100602.41;5034218;28;20472;-58
2022/04/11 05:02:46;;;;;;;6.97;3.10;;;;;;;5.63;66.74;100608.53;5030328;28;20033;-60
2022/04/11 05:05:15;;;;;;;8.60;3.28;;;;;;;5.68;66.50;100607.66;5031071;28;20041;-58
2022/04/11 05:07:41;;;;;;;9.10;2.95;;;;;;;5.69;66.47;100614.59;5025379;28;20112;-59
2022/04/11 05:10:08;;;;;;;11.65;3.35;;;;;;;5.74;66.35;100603.31;5027349;28;20038;-59
2022/04/11 05:12:45;;;;;;;4.60;2.50;;;;;;;5.89;65.91;100613.75;5023534;28;20033;-58
2022/04/11 05:15:11;;;;;;;7.47;2.95;;;;;;;6.07;65.38;100600.78;5035679;28;20037;-59
2022/04/11 05:17:37;;;;;;;4.75;2.60;;;;;;;6.16;65.32;100605.97;5047638;28;20033;-59
2022/04/11 05:20:06;;;;;;;8.07;2.83;;;;;;;6.37;64.61;100605.09;5017731;28;20063;-57
2022/04/11 05:22:31;;;;;;;9.25;4.30;;;;;;;6.13;64.96;100616.41;5020247;28;20084;-58
2022/04/11 05:24:57;;;;;;;11.98;6.43;;;;;;;6.17;64.86;100612.94;5029421;28;20489;-58
2022/04/11 05:27:22;;;;;;;6.50;3.05;;;;;;;6.31;64.68;100605.13;5023864;28;20090;-58
2022/04/11 05:29:48;;;;;;;7.30;3.10;;;;;;;6.18;64.80;100611.19;5029968;28;20389;-58
2022/04/11 05:32:13;;;;;;;8.93;2.78;;;;;;;6.18;64.73;100621.63;5029842;28;20468;-58
2022/04/11 05:34:39;;;;;;;6.03;2.47;;;;;;;6.19;64.81;100615.56;5020808;28;20102;-58
2022/04/11 05:37:04;;;;;;;5.20;2.08;;;;;;;6.15;64.97;100629.47;5031608;28;20531;-58
2022/04/11 05:39:30;;;;;;;11.05;2.65;;;;;;;6.04;65.13;100629.47;5027470;28;20400;-58
2022/04/11 05:41:56;;;;;;;6.57;2.58;;;;;;;6.22;64.82;100625.97;5030716;28;20037;-58
2022/04/11 05:44:22;;;;;;;7.50;2.92;;;;;;;6.30;64.60;100639.03;5023977;28;20041;-58
2022/04/11 05:46:52;;;;;;;9.80;3.15;;;;;;;6.29;64.47;100643.38;5029909;28;20492;-58
2022/04/11 05:49:19;;;;;;;7.80;2.70;;;;;;;6.56;63.79;100634.66;5029050;28;20128;-58
2022/04/11 05:51:45;;;;;;;6.78;2.10;;;;;;;6.52;63.66;100645.13;5014380;28;20429;-58
2022/04/11 05:54:10;;;;;;;5.45;2.38;;;;;;;6.50;63.60;100645.09;5019719;28;20091;-58
2022/04/11 05:56:36;;;;;;;5.93;2.03;;;;;;;6.61;63.30;100643.34;5035160;28;20034;-58
2022/04/11 05:59:03;;;;;;;10.40;2.35;;;;;;;6.63;63.07;100638.16;5026867;28;20026;-58
2022/04/11 06:01:29;;;;;;;5.57;2.40;;;;;;;6.81;62.58;100642.47;5023399;28;20091;-58
2022/04/11 06:03:55;;;;;;;8.25;3.67;;;;;;;6.69;62.71;100650.31;5034446;28;20037;-58
2022/04/11 06:06:20;;;;;;;8.10;3.67;;;;;;;6.52;63.11;100646.00;5023932;28;20113;-58
2022/04/11 06:08:46;;;;;;;8.55;3.00;;;;;;;6.67;63.04;100645.09;5022583;28;20065;-57
2022/04/11 06:11:12;;;;;;;5.47;2.15;;;;;;;6.78;62.64;100643.34;5023747;28;20044;-58
2022/04/11 06:13:37;;;;;;;6.85;2.40;;;;;;;6.76;62.60;100647.69;5031096;28;20041;-58
2022/04/11 06:16:04;;;;;;;15.35;2.45;;;;;;;6.69;62.71;100647.72;5031498;28;20029;-58
2022/04/11 06:18:30;;;;;;;7.60;2.10;;;;;;;6.62;62.81;100646.84;5033861;28;20124;-58
2022/04/11 06:20:56;;;;;;;7.57;2.08;;;;;;;6.71;62.38;100646.84;5042863;28;20103;-59
2022/04/11 06:23:21;;;;;;;5.15;1.75;;;;;;;6.75;62.45;100658.16;5033324;28;20034;-59
2022/04/11 06:25:46;;;;;;;10.13;2.42;;;;;;;6.63;62.71;100648.59;5038883;28;20064;-59
2022/04/11 06:28:12;;;;;;;7.75;2.60;;;;;;;6.71;62.29;100652.06;5039919;28;20034;-59
2022/04/11 06:30:37;;;;;;;8.48;2.45;;;;;;;6.80;62.16;100651.19;5026340;28;20104;-60
2022/04/11 06:33:03;;;;;;;5.50;2.38;;;;;;;6.72;62.18;100659.03;5029763;28;20029;-58
2022/04/11 06:35:28;;;;;;;7.90;2.20;;;;;;;6.78;62.02;100660.75;5013867;28;20218;-58
2022/04/11 06:37:53;;;;;;;8.88;1.77;;;;;;;6.77;61.93;100653.78;5020104;28;20029;-58
2022/04/11 06:40:19;;;;;;;6.07;1.88;;;;;;;7.04;61.05;100651.09;5032065;28;20508;-60
2022/04/11 06:42:44;;;;;;;6.28;1.83;;;;;;;7.23;60.55;100657.16;5030382;28;20041;-58
2022/04/11 06:45:10;;;;;;;9.40;2.22;;;;;;;7.64;59.61;100658.72;5022767;28;20037;-59
2022/04/11 06:47:35;;;;;;;8.43;1.90;;;;;;;7.71;59.54;100660.44;5022312;28;20109;-59
2022/04/11 06:50:01;;;;;;;12.80;2.00;;;;;;;7.73;58.83;100658.66;5025468;28;20393;-59
2022/04/11 06:52:26;;;;;;;6.57;1.67;;;;;;;7.82;58.40;100674.31;5033217;28;20042;-59
2022/04/11 06:54:51;;;;;;;9.23;1.92;;;;;;;7.69;58.24;100664.78;5015964;28;20046;-60
2022/04/11 06:57:17;;;;;;;8.57;2.58;;;;;;;7.50;58.62;100660.50;5014173;28;20065;-59
2022/04/11 06:59:42;;;;;;;9.63;2.22;;;;;;;7.60;58.72;100670.06;5015576;28;20030;-59
2022/04/11 07:02:08;;;;;;;6.28;2.13;;;;;;;7.75;58.39;100674.34;5024921;28;20076;-59
2022/04/11 07:04:33;;;;;;;10.07;2.03;;;;;;;7.92;57.34;100671.63;5014087;28;20465;-59
2022/04/11 07:06:58;;;;;;;4.82;1.83;;;;;;;8.59;56.71;100664.19;5029923;28;20048;-59
2022/04/11 07:09:24;;;;;;;6.15;1.95;;;;;;;8.99;55.59;100665.53;5026323;28;20041;-59
2022/04/11 07:11:49;;;;;;;8.35;1.98;;;;;;;8.62;55.26;100656.28;5031261;28;20033;-59
2022/04/11 07:14:15;;;;;;;13.77;2.85;;;;;;;9.10;54.73;100666.31;5014608;28;20034;-59
2022/04/11 07:16:40;;;;;;;8.85;2.42;;;;;;;9.17;54.03;100672.31;5013902;28;20030;-60
2022/04/11 07:19:06;;;;;;;10.82;2.00;;;;;;;9.51;52.90;100663.19;5020120;28;20068;-59
2022/04/11 07:21:32;;;;;;;6.03;1.70;;;;;;;9.70;52.29;100666.44;5018466;28;20092;-58
2022/04/11 07:23:58;;;;;;;6.97;1.90;;;;;;;9.68;51.84;100659.47;5014749;28;20033;-58
2022/04/11 07:26:23;;;;;;;21.85;5.30;;;;;;;9.79;51.04;100673.31;5021775;28;20049;-58
2022/04/11 07:28:50;;;;;;;4.30;1.90;;;;;;;9.56;50.83;100661.34;5023402;28;20036;-59
2022/04/11 07:31:16;;;;;;;8.55;2.15;;;;;;;9.59;51.07;100674.44;5022822;28;20048;-58
2022/04/11 07:33:41;;;;;;;6.63;1.50;;;;;;;9.26;50.58;100674.88;5021567;28;20034;-59
2022/04/11 07:36:07;;;;;;;5.28;1.30;;;;;;;9.05;50.87;100673.31;5023487;28;20484;-58
2022/04/11 07:38:32;;;;;;;5.32;1.60;;;;;;;9.27;50.23;100682.69;5022614;28;20033;-58
2022/04/11 07:40:58;;;;;;;6.53;1.55;;;;;;;9.47;50.15;100674.59;5021396;28;20054;-58
2022/04/11 07:43:23;;;;;;;6.65;1.17;;;;;;;9.28;48.97;100687.03;5024307;28;20046;-58
2022/04/11 07:45:49;;;;;;;10.38;1.52;;;;;;;9.28;48.44;100670.44;5021692;28;20033;-58
2022/04/11 07:48:15;;;;;;;4.88;1.30;;;;;;;9.51;48.25;100678.91;5019164;28;20041;-58
2022/04/11 07:50:40;;;;;;;8.88;1.77;;;;;;;9.41;47.47;100682.53;5021166;28;20065;-58
2022/04/11 07:53:06;;;;;;;5.50;1.55;;;;;;;9.45;47.35;100684.22;5023297;28;20512;-58
2022/04/11 07:55:33;;;;;;;6.50;1.48;;;;;;;9.40;47.04;100674.69;5018378;28;20061;-59
2022/04/11 07:57:59;;;;;;;5.72;1.42;;;;;;;9.53;46.68;100671.88;5021404;28;20022;-59
2022/04/11 08:00:25;;;;;;;7.88;2.00;;;;;;;9.86;46.53;100680.22;5019618;28;20040;-58
2022/04/11 08:02:55;;;;;;;8.68;2.45;;;;;;;9.72;45.95;100685.63;5024362;28;20041;-58
2022/04/11 08:05:22;;;;;;;5.00;1.67;;;;;;;9.98;46.29;100677.41;5023392;28;20076;-59
2022/04/11 08:07:48;;;;;;;5.68;1.70;;;;;;;10.08;45.87;100686.00;5022551;28;20065;-58
2022/04/11 08:10:16;;;;;;;4.53;1.30;;;;;;;9.93;45.56;100684.47;5025827;28;20049;-59
2022/04/11 08:12:52;;;;;;;4.07;1.02;;;;;;;9.62;45.00;100684.03;5026703;28;20447;-58
2022/04/11 08:15:18;;;;;;;4.50;1.48;;;;;;;9.94;45.53;100686.22;5027149;28;20046;-58
2022/04/11 08:17:43;;;;;;;9.30;1.55;;;;;;;10.22;45.41;100697.19;5021943;28;20088;-58
2022/04/11 08:20:09;;;;;;;6.72;1.50;;;;;;;10.06;45.36;100698.31;5026797;28;20394;-58
2022/04/11 08:22:34;;;;;;;4.90;1.40;;;;;;;9.84;45.60;100687.22;5027921;28;20112;-58
2022/04/11 08:25:00;;;;;;;7.85;2.58;;;;;;;9.76;46.22;100700.44;5023438;28;20125;-58
2022/04/11 08:27:25;;;;;;;9.82;2.03;;;;;;;9.64;46.31;100692.72;5029734;28;20435;-58
2022/04/11 08:29:50;;;;;;;5.32;1.65;;;;;;;9.77;46.55;100696.94;5028246;28;20033;-58
2022/04/11 08:32:18;;;;;;;5.68;1.30;;;;;;;9.92;45.94;100695.84;5026168;28;20072;-58
2022/04/11 08:34:44;;;;;;;4.57;1.55;;;;;;;10.08;46.32;100701.75;5019383;28;20029;-60
2022/04/11 08:37:09;;;;;;;8.40;1.73;;;;;;;10.26;46.04;100703.28;5026404;28;20366;-58
2022/04/11 08:39:34;;;;;;;9.07;2.45;;;;;;;10.33;45.98;100707.53;5028009;28;20137;-58
2022/04/11 08:42:03;;;;;;;8.43;2.03;;;;;;;10.06;46.25;100699.16;5017772;28;20395;-58
2022/04/11 08:44:31;;;;;;;6.45;1.48;;;;;;;9.92;46.61;100703.72;5027146;28;20038;-58
2022/04/11 08:47:01;;;;;;;3.50;1.60;;;;;;;9.98;46.65;100703.66;5033002;28;20116;-59
2022/04/11 08:49:31;;;;;;;5.20;1.85;;;;;;;9.99;46.91;100702.75;5024487;28;20025;-59
2022/04/11 08:51:57;;;;;;;5.85;1.90;;;;;;;10.01;47.34;100702.72;5024786;28;20041;-59
2022/04/11 08:54:23;;;;;;;7.47;2.40;;;;;;;9.77;48.15;100696.94;5026838;28;20033;-59
2022/04/11 08:56:48;;;;;;;7.07;1.92;;;;;;;9.88;48.53;100710.78;5027386;28;20030;-59
2022/04/11 08:59:14;;;;;;;4.03;1.50;;;;;;;9.46;50.22;100722.69;5020375;28;20042;-58
2022/04/11 09:01:40;;;;;;;5.32;1.10;;;;;;;9.37;50.05;100717.53;5022044;28;20462;-58
2022/04/11 09:04:08;;;;;;;7.57;1.15;;;;;;;9.28;48.64;100728.13;5023715;28;20466;-58
2022/04/11 09:06:35;;;;;;;3.13;1.10;;;;;;;9.28;47.36;100720.28;5024267;28;21383;-58
2022/04/11 09:09:02;;;;;;;2.33;0.63;;;;;;;9.46;47.06;100706.97;5025531;28;20028;-58
2022/04/11 09:11:35;;;;;;;4.63;0.95;;;;;;;9.88;44.92;100709.91;5017701;28;20041;-58
2022/04/11 09:14:04;;;;;;;4.75;1.35;;;;;;;10.17;44.58;100712.13;5023434;28;20393;-58
2022/04/11 09:16:49;;;;;;;6.78;1.13;;;;;;;10.14;43.38;100716.56;5024405;28;20029;-59
2022/04/11 09:19:22;;;;;;;6.25;1.30;;;;;;;10.01;43.76;100716.72;5023572;28;20045;-58
2022/04/11 09:21:50;;;;;;;5.43;1.27;;;;;;;10.10;44.23;100710.50;5024814;28;20120;-59
2022/04/11 09:24:19;;;;;;;6.03;1.45;;;;;;;10.19;44.67;100714.75;5024820;28;20030;-58
2022/04/11 09:26:45;;;;;;;4.38;1.60;;;;;;;10.53;44.17;100709.84;5025367;28;20049;-58
2022/04/11 09:29:12;;;;;;;6.20;1.55;;;;;;;10.74;44.17;100719.16;5023089;28;20083;-58
2022/04/11 09:31:38;;;;;;;4.75;1.45;;;;;;;10.52;44.99;100703.72;5025304;28;20114;-58
2022/04/11 09:34:33;;;;;;;4.30;1.42;;;;;;;10.31;43.80;100706.72;5022286;28;20034;-58
2022/04/11 09:37:02;;;;;;;5.18;1.42;;;;;;;10.35;44.20;100706.63;5024031;28;20118;-58
2022/04/11 09:39:30;;;;;;;7.18;1.92;;;;;;;10.48;44.60;100704.69;5024391;28;20033;-58
2022/04/11 09:41:57;;;;;;;3.08;1.52;;;;;;;10.68;44.18;100700.84;5025159;28;20040;-58
2022/04/11 09:44:30;;;;;;;3.13;1.42;;;;;;;10.52;43.89;100701.09;5024600;28;20564;-58
2022/04/11 09:46:59;;;;;;;4.10;1.63;;;;;;;10.87;43.44;100704.03;5023087;28;20040;-58
2022/04/11 09:49:25;;;;;;;4.95;1.30;;;;;;;10.74;43.21;100693.75;5021814;28;20037;-59
2022/04/11 09:52:11;;;;;;;5.13;1.20;;;;;;;10.65;41.89;100703.53;5026797;28;20038;-58
2022/04/11 09:54:47;;;;;;;6.57;1.33;;;;;;;10.39;43.01;100701.34;5021379;28;20034;-59
2022/04/11 09:57:15;;;;;;;4.72;1.38;;;;;;;10.40;43.41;100710.94;5022606;28;20053;-59
2022/04/11 09:59:41;;;;;;;5.40;1.63;;;;;;;10.04;43.99;100716.69;5023143;28;20041;-59
2022/04/11 10:02:11;;;;;;;4.45;1.30;;;;;;;9.86;42.70;100716.97;5023727;28;20037;-59
2022/04/11 10:04:38;;;;;;;2.22;0.88;;;;;;;9.94;42.41;100717.72;5025638;28;20068;-58
2022/04/11 10:07:04;;;;;;;1.67;0.95;;;;;;;10.36;41.90;100708.38;5021574;28;20037;-59
2022/04/11 10:09:30;;;;;;;3.45;0.93;;;;;;;10.72;41.02;100708.66;5020369;28;20370;-58
2022/04/11 10:11:55;;;;;;;3.15;0.90;;;;;;;10.84;40.48;100705.81;5025955;28;20029;-58
2022/04/11 10:14:26;;;;;;;2.17;0.77;;;;;;;11.09;38.63;100706.25;5029020;28;20107;-58
2022/04/11 10:17:03;;;;;;;4.13;1.40;;;;;;;11.08;37.28;100715.03;5022603;28;20103;-58
2022/04/11 10:19:31;;;;;;;3.30;0.90;;;;;;;11.01;37.88;100712.53;5022653;28;20025;-59
2022/04/11 10:22:01;;;;;;;3.83;1.10;;;;;;;10.87;37.46;100704.91;5016262;28;20033;-59
2022/04/11 10:24:38;;;;;;;3.60;1.20;;;;;;;11.24;36.60;100707.72;5017251;28;20159;-59
2022/04/11 10:27:21;;;;;;;4.82;0.80;;;;;;;11.17;35.96;100710.47;5030521;28;20481;-59
2022/04/11 10:29:50;;;;;;;3.58;0.82;;;;;;;11.50;37.33;100711.63;5030922;28;20043;-59
2022/04/11 10:32:20;;;;;;;2.60;1.10;;;;;;;11.70;37.20;100706.81;5028136;28;20056;-59
2022/04/11 10:34:52;;;;;;;3.78;1.00;;;;;;;11.70;37.23;100709.44;5015548;28;20082;-59
2022/04/11 10:37:20;;;;;;;2.28;0.80;;;;;;;11.58;37.88;100710.56;5017730;28;20038;-59
2022/04/11 10:39:47;;;;;;;3.75;1.10;;;;;;;11.03;38.07;100737.06;5024563;28;20048;-59
2022/04/11 10:42:14;;;;;;;4.78;1.35;;;;;;;10.51;39.21;100732.66;5021319;28;20038;-59
2022/04/11 10:44:39;;;;;;;5.53;1.35;;;;;;;10.25;39.48;100712.03;5014670;28;20038;-59
2022/04/11 10:47:11;;;;;;;6.18;1.27;;;;;;;10.33;39.85;100720.66;5016280;28;20103;-59
2022/04/11 10:50:01;;;;;;;3.40;1.45;;;;;;;10.19;39.55;100720.84;5016494;28;20469;-59
2022/04/11 10:52:38;;;;;;;3.67;1.00;;;;;;;10.17;39.67;100724.38;5019671;28;20397;-59
2022/04/11 10:55:05;;;;;;;3.40;1.10;;;;;;;10.41;39.95;100723.19;5024642;28;20060;-58
2022/04/11 10:57:44;;;;;;;4.00;1.17;;;;;;;10.77;38.49;100713.81;5027593;28;20040;-58
2022/04/11 11:00:09;;;;;;;3.85;1.17;;;;;;;10.68;38.73;100716.63;5021552;28;20448;-58
2022/04/11 11:02:50;;;;;;;2.55;0.80;;;;;;;11.15;37.70;100722.81;5021912;28;20065;-58
2022/04/11 11:05:28;;;;;;;3.58;1.27;;;;;;;11.07;38.79;100730.84;5027245;28;20029;-58
2022/04/11 11:08:11;;;;;;;5.80;2.08;;;;;;;11.44;38.64;100725.75;5024628;28;20149;-58
2022/04/11 11:11:03;;;;;;;7.95;2.75;;;;;;;11.79;38.28;100718.91;5020655;28;20083;-58
2022/04/11 11:13:34;;;;;;;12.35;4.95;;;;;;;11.90;37.97;100727.47;5029416;28;20473;-58
2022/04/11 11:16:00;;;;;;;7.95;3.78;;;;;;;11.95;36.48;100725.59;5028532;28;20037;-59
2022/04/11 11:18:27;;;;;;;5.78;1.83;;;;;;;11.98;36.78;100725.53;5023476;28;20057;-59
2022/04/11 11:20:55;;;;;;;9.38;2.15;;;;;;;11.69;35.89;100720.88;5021623;28;20051;-59
2022/04/11 11:23:31;;;;;;;6.50;3.20;;;;;;;11.58;36.41;100730.75;5024817;28;20038;-59
2022/04/11 11:26:13;;;;;;;5.22;1.52;;;;;;;11.49;36.70;100728.28;5024872;28;20036;-58
2022/04/11 11:28:43;;;;;;;4.43;1.40;;;;;;;11.40;36.97;100729.31;5021451;28;20041;-58